Cerrillos, NM (87010)

7:06 PM MDT on September 19, 2014 (GMT -0600)
Lightdancer | Change Station
CLOSE
Current Station
Personal Weather Station
Location: Madrid, NM
Elevation: 6205 ft
Nearby Weather Stations

Elev 6205 ft 35.41 °N, 106.19 °W | Updated 5 seconds ago

Partly Cloudy
Partly Cloudy
73.9 °F
Feels Like 77 °F
N
6.9
Wind Variable Wind from South
Gusts 9.8 mph

Today
High -- | Low -- °F
--% Chance of Precip.
Yesterday
High -- | Low -- °F
Precip. -- in
6:50 AM 7:05 PM
Waning Crescent, 16% visible
Pressure 29.80 in
Visibility 10.0 miles
Clouds Clear
Heat Index 77 °F
Dew Point 53 °F
Humidity 48%
Rainfall 0.00 in
Snow Depth 3 in , 14 in , 1 in
UV 0 out of 12
Pollen 5.70 out of 12
Air Quality Not available.
Flu Activity Not available.
METAR KSAF 200053Z 17010KT 10SM CLR 24/11 A3008 RMK AO2 SLP090 T02390106

More Conditions Fewer Conditions

Pressure 29.80 in
Visibility 10.0 miles
Clouds Clear
Heat Index 77 °F
Dew Point 53 °F
Humidity 48%
Rainfall 0.00 in
Snow Depth 3 in , 14 in , 1 in
UV 0 out of 12
Pollen 5.70 out of 12
Air Quality Not available.
Flu Activity Not available.
METAR KSAF 200053Z 17010KT 10SM CLR 24/11 A3008 RMK AO2 SLP090 T02390106

More Conditions Fewer Conditions

10-Day Weather Forecast

Almanac

Astronomy

Sep. 19, 2014 Rise Set
Actual Time 6:50 AM MDT 7:05 PM MDT
Civil Twilight 6:24 AM MDT 7:31 PM MDT
Nautical Twilight 5:55 AM MDT 8:00 PM MDT
Astronomical Twilight 5:24 AM MDT 8:30 PM MDT
Moon 2:45 AM MDT (9/19) 4:29 PM MDT (9/19)
Length of Visible Light 13h 06m
Length of Day
12h 15m
Tomorrow will be 2m 13s shorter.
Waning Crescent, 16% of the Moon is Illuminated
Today
Waning Crescent
Sep 24
New
Oct 1
First Quarter
Oct 8
Full
Oct 15
Last Quarter

Today's Extremes

State Highs State Lows

Community

WunderPhotos

Upload Photos

1,754,756 photos uploaded!

WunderBlogs® & News

Nearby

Snow Depth

Station Depth Elevation
Wesner Springs 3 in 11120 ft
Silver Creek Divide 14 in 9000 ft
Sierra Blanca 1 in 10280 ft
Santa Fe 0 in 11445 ft
Red River Pass #2 0 in 9850 ft

Earthquake Activity

City Distance Mag. Time & Date
No recent earthquake activity has been reported nearby.
Minimum magnitude displayed is 2.5.

Coastal Water Temperatures

Place Temperature
No Stations Reporting

Nearby Weather Stations